createdAt,value
2023-05-02T00:01:12.395Z,64.19
2023-05-02T00:03:42.099Z,65.23
2023-05-02T00:06:11.430Z,65.76
2023-05-02T00:08:40.455Z,65.80
2023-05-02T00:11:08.746Z,67.21
2023-05-02T00:13:38.408Z,67.86
2023-05-02T00:16:07.349Z,70.13
2023-05-02T00:18:35.753Z,71.49
2023-05-02T00:21:04.041Z,72.70
2023-05-02T00:23:32.332Z,73.65
2023-05-02T00:26:00.559Z,74.05
2023-05-02T00:28:28.922Z,73.98
2023-05-02T00:30:59.506Z,73.67
2023-05-02T00:33:27.892Z,74.57
2023-05-02T00:35:56.162Z,75.71
2023-05-02T00:38:24.505Z,76.27
2023-05-02T00:40:53.445Z,76.08
2023-05-02T00:43:21.756Z,77.15
2023-05-02T00:45:49.967Z,77.17
2023-05-02T00:48:21.813Z,78.84
2023-05-02T00:50:50.323Z,78.97
2023-05-02T00:53:18.910Z,79.88
2023-05-02T00:55:49.556Z,79.76
2023-05-02T00:58:20.155Z,80.57
2023-05-02T01:01:04.209Z,81.14
2023-05-02T01:03:41.485Z,82.17
2023-05-02T01:06:21.564Z,83.50
2023-05-02T01:08:57.036Z,83.55
2023-05-02T01:11:34.687Z,86.03
2023-05-02T01:14:09.791Z,86.40
2023-05-02T01:16:42.223Z,86.39
2023-05-02T01:19:23.303Z,87.72
2023-05-02T01:21:53.770Z,87.78
2023-05-02T01:24:27.822Z,88.43
2023-05-02T01:27:08.583Z,88.91
2023-05-02T01:29:40.301Z,89.36
2023-05-02T01:32:10.593Z,90.13
2023-05-02T01:34:41.888Z,91.26
2023-05-02T01:37:13.684Z,91.10
2023-05-02T01:39:43.868Z,92.05
2023-05-02T01:42:13.587Z,92.23
2023-05-02T01:44:44.621Z,93.59
2023-05-02T01:47:13.998Z,94.35
2023-05-02T01:49:43.810Z,95.13
2023-05-02T01:52:14.010Z,96.16
2023-05-02T01:54:42.734Z,97.08
2023-05-02T01:57:13.238Z,96.95
2023-05-02T01:59:46.287Z,97.45
2023-05-02T02:02:16.876Z,98.43
2023-05-02T02:04:50.013Z,98.81
2023-05-02T02:07:18.428Z,99.54
2023-05-02T02:09:46.651Z,100.00
2023-05-02T02:12:33.228Z,100.00
2023-05-02T02:15:10.318Z,100.00
2023-05-02T02:17:41.617Z,100.00
2023-05-02T02:20:13.990Z,100.00
2023-05-02T02:22:44.934Z,100.00
2023-05-02T02:25:15.614Z,100.00
2023-05-02T02:27:43.994Z,100.00
2023-05-02T02:30:13.855Z,100.00
2023-05-02T02:32:42.194Z,100.00
2023-05-02T02:35:11.714Z,100.00
2023-05-02T02:37:44.082Z,100.00
2023-05-02T02:40:20.386Z,100.00
2023-05-02T02:42:57.038Z,100.00
2023-05-02T02:45:35.197Z,100.00
2023-05-02T02:48:12.729Z,100.00
2023-05-02T02:50:54.067Z,100.00
2023-05-02T02:53:28.748Z,100.00
2023-05-02T02:56:01.777Z,100.00
2023-05-02T02:58:40.763Z,100.00
2023-05-02T03:01:13.312Z,100.00
2023-05-02T03:03:44.433Z,100.00
2023-05-02T03:06:13.067Z,100.00
2023-05-02T03:08:42.221Z,100.00
2023-05-02T03:11:15.060Z,100.00
2023-05-02T03:13:43.572Z,100.00
2023-05-02T03:16:36.672Z,100.00
2023-05-02T03:19:08.494Z,100.00
2023-05-02T03:21:37.967Z,100.00
2023-05-02T03:24:19.859Z,100.00
2023-05-02T03:26:49.661Z,100.00
2023-05-02T03:29:24.590Z,100.00
2023-05-02T03:31:54.676Z,100.00
2023-05-02T03:34:24.604Z,100.00
2023-05-02T03:36:54.375Z,100.00
2023-05-02T03:39:22.810Z,100.00
2023-05-02T03:41:51.144Z,100.00
2023-05-02T03:44:23.739Z,100.00
2023-05-02T03:46:52.218Z,100.00
2023-05-02T03:49:21.983Z,100.00
2023-05-02T03:51:53.300Z,99.95
2023-05-02T03:54:26.801Z,99.96
2023-05-02T03:56:56.392Z,100.00
2023-05-02T03:59:30.431Z,99.64
2023-05-02T04:01:59.322Z,99.62
2023-05-02T04:04:40.913Z,99.68
2023-05-02T04:07:16.987Z,99.21
2023-05-02T04:09:46.679Z,99.77
2023-05-02T04:12:16.826Z,99.37
2023-05-02T04:14:49.073Z,98.80
2023-05-02T04:17:18.728Z,99.90
2023-05-02T04:19:51.497Z,100.00
2023-05-02T04:22:22.159Z,99.00
2023-05-02T04:24:58.623Z,99.31
2023-05-02T04:27:28.716Z,98.63
2023-05-02T04:29:57.033Z,98.17
2023-05-02T04:32:25.925Z,98.03
2023-05-02T04:34:56.685Z,98.02
2023-05-02T04:37:25.528Z,97.50
2023-05-02T04:39:53.888Z,97.77
2023-05-02T04:42:26.114Z,97.62
2023-05-02T04:45:01.618Z,96.86
2023-05-02T04:47:32.185Z,96.88
2023-05-02T04:50:03.139Z,95.80
2023-05-02T04:52:32.499Z,95.46
2023-05-02T04:55:00.779Z,95.33
2023-05-02T04:57:33.288Z,94.20
2023-05-02T05:00:03.226Z,93.85
2023-05-02T05:02:36.253Z,93.85
2023-05-02T05:05:06.967Z,92.07
2023-05-02T05:07:35.620Z,91.42
2023-05-02T05:10:04.014Z,90.97
2023-05-02T05:12:41.134Z,90.14
2023-05-02T05:15:12.009Z,89.49
2023-05-02T05:17:44.355Z,88.44
2023-05-02T05:20:15.151Z,88.32
2023-05-02T05:22:44.316Z,87.25
2023-05-02T05:25:15.221Z,86.18
2023-05-02T05:28:14.010Z,85.45
2023-05-02T05:30:42.539Z,84.84
2023-05-02T05:33:14.723Z,83.46
2023-05-02T05:35:44.487Z,82.23
2023-05-02T05:38:12.700Z,81.63
2023-05-02T05:40:43.831Z,80.41
2023-05-02T05:43:13.270Z,79.45
2023-05-02T05:45:41.575Z,78.87
2023-05-02T05:48:10.024Z,77.82
2023-05-02T05:50:47.146Z,76.45
2023-05-02T05:53:15.982Z,76.78
2023-05-02T05:55:46.683Z,76.93
2023-05-02T05:58:15.530Z,76.62
2023-05-02T06:00:45.799Z,75.92
2023-05-02T06:03:14.285Z,75.22
2023-05-02T06:05:42.834Z,74.29
2023-05-02T06:08:12.640Z,74.35
2023-05-02T06:10:41.748Z,73.52
2023-05-02T06:13:10.319Z,72.80
2023-05-02T06:15:42.122Z,72.16
2023-05-02T06:18:10.489Z,70.63
2023-05-02T06:20:38.828Z,70.79
2023-05-02T06:23:07.156Z,70.24
2023-05-02T06:25:39.137Z,69.01
2023-05-02T06:28:07.571Z,68.84
2023-05-02T06:30:36.199Z,68.65
2023-05-02T06:33:05.930Z,67.87
2023-05-02T06:35:34.284Z,67.43
2023-05-02T06:38:02.709Z,66.82
2023-05-02T06:40:31.066Z,65.50
2023-05-02T06:43:00.923Z,64.53
2023-05-02T06:45:29.199Z,64.72
2023-05-02T06:47:57.488Z,64.74
2023-05-02T06:50:25.761Z,62.29
2023-05-02T06:52:54.144Z,62.43
2023-05-02T06:55:22.505Z,61.77
2023-05-02T06:57:51.515Z,61.92
2023-05-02T07:00:22.038Z,60.42
2023-05-02T07:02:50.912Z,59.16
2023-05-02T07:05:19.228Z,58.30
2023-05-02T07:07:47.486Z,56.96
2023-05-02T07:10:15.747Z,57.34
2023-05-02T07:12:44.068Z,56.15
2023-05-02T07:15:13.879Z,57.00
2023-05-02T07:17:43.724Z,55.51
2023-05-02T07:20:13.225Z,55.81
2023-05-02T07:22:41.409Z,54.50
2023-05-02T07:25:10.729Z,54.23
2023-05-02T07:27:39.093Z,52.62
2023-05-02T07:30:08.447Z,52.94
2023-05-02T07:32:36.757Z,51.68
2023-05-02T07:35:07.383Z,52.43
2023-05-02T07:37:36.580Z,50.51
2023-05-02T07:40:06.076Z,49.48
2023-05-02T07:42:36.313Z,48.45
2023-05-02T07:45:05.031Z,47.08
2023-05-02T07:47:35.881Z,48.05
2023-05-02T07:50:04.837Z,46.70
2023-05-02T07:52:36.317Z,45.71
2023-05-02T07:55:05.236Z,46.11
2023-05-02T07:57:33.664Z,46.95
2023-05-02T08:00:02.195Z,44.93
2023-05-02T08:02:43.120Z,44.98
2023-05-02T08:05:11.705Z,45.30
2023-05-02T08:07:41.463Z,44.13
2023-05-02T08:10:10.985Z,43.22
2023-05-02T08:12:40.396Z,43.95
2023-05-02T08:15:10.370Z,44.02
2023-05-02T08:17:39.062Z,43.81
2023-05-02T08:20:08.652Z,43.33
2023-05-02T08:22:36.894Z,42.50
2023-05-02T08:25:07.361Z,40.85
2023-05-02T08:27:36.027Z,41.94
2023-05-02T08:30:04.592Z,41.32
2023-05-02T08:32:34.825Z,41.45
2023-05-02T08:35:03.534Z,41.13
2023-05-02T08:37:34.180Z,39.35
2023-05-02T08:40:03.034Z,40.72
2023-05-02T08:42:37.194Z,39.69
2023-05-02T08:45:07.218Z,39.50
2023-05-02T08:47:38.010Z,39.87
2023-05-02T08:50:08.421Z,39.73
2023-05-02T08:52:37.274Z,39.38
2023-05-02T08:55:07.329Z,39.73
2023-05-02T08:57:37.026Z,39.49
2023-05-02T09:00:06.843Z,38.67
2023-05-02T09:02:53.471Z,39.38
2023-05-02T09:05:25.916Z,39.26
2023-05-02T09:07:54.257Z,39.56
2023-05-02T09:10:23.198Z,38.82
2023-05-02T09:12:53.016Z,38.32
2023-05-02T09:15:22.471Z,37.54
2023-05-02T09:17:51.150Z,38.12
2023-05-02T09:20:19.552Z,37.34
2023-05-02T09:22:51.974Z,38.43
2023-05-02T09:25:21.586Z,37.69
2023-05-02T09:27:55.918Z,37.08
2023-05-02T09:30:26.128Z,36.76
2023-05-02T09:32:56.007Z,36.51
2023-05-02T09:35:25.861Z,35.67
2023-05-02T09:37:55.785Z,35.51
2023-05-02T09:40:24.681Z,36.03
2023-05-02T09:42:54.497Z,36.60
2023-05-02T09:45:24.072Z,35.91
2023-05-02T09:47:53.760Z,35.08
2023-05-02T09:50:35.830Z,34.25
2023-05-02T09:53:06.145Z,34.42
2023-05-02T09:55:34.637Z,34.84
2023-05-02T09:58:04.382Z,35.02
2023-05-02T10:00:43.260Z,34.48
2023-05-02T10:03:12.364Z,34.42
2023-05-02T10:05:41.185Z,33.31
2023-05-02T10:08:10.485Z,33.75
2023-05-02T10:10:40.821Z,33.98
2023-05-02T10:13:11.059Z,32.88
2023-05-02T10:15:45.826Z,33.19
2023-05-02T10:18:15.733Z,32.95
2023-05-02T10:20:49.281Z,33.35
2023-05-02T10:23:18.468Z,33.30
2023-05-02T10:25:47.206Z,32.72
2023-05-02T10:28:17.058Z,32.26
2023-05-02T10:30:46.636Z,33.86
2023-05-02T10:33:16.164Z,32.99
2023-05-02T10:35:46.689Z,32.83
2023-05-02T10:38:19.361Z,32.19
2023-05-02T10:40:57.702Z,32.62
2023-05-02T10:43:29.946Z,32.36
2023-05-02T10:45:58.401Z,32.58
2023-05-02T10:48:28.186Z,32.15
2023-05-02T10:50:58.647Z,31.59
2023-05-02T10:53:32.010Z,31.87
2023-05-02T10:56:13.616Z,31.92
2023-05-02T10:58:45.704Z,30.83
2023-05-02T11:01:40.032Z,31.22
2023-05-02T11:04:09.723Z,30.84
2023-05-02T11:06:59.419Z,30.07
2023-05-02T11:09:35.216Z,30.64
2023-05-02T11:12:05.889Z,30.21
2023-05-02T11:14:49.772Z,30.51
2023-05-02T11:17:19.992Z,29.81
2023-05-02T11:20:26.024Z,29.67
2023-05-02T11:22:58.112Z,28.89
2023-05-02T11:25:38.016Z,29.19
2023-05-02T11:28:09.527Z,28.21
2023-05-02T11:30:44.285Z,28.72
2023-05-02T11:33:17.761Z,28.73
2023-05-02T11:35:47.783Z,28.72
2023-05-02T11:38:21.771Z,27.62
2023-05-02T11:40:58.344Z,28.40
2023-05-02T11:43:30.804Z,27.65
2023-05-02T11:46:05.092Z,27.57
2023-05-02T11:48:33.692Z,28.78
2023-05-02T11:51:07.275Z,28.55
2023-05-02T11:53:42.739Z,28.18
2023-05-02T11:56:11.213Z,28.52
2023-05-02T11:58:39.432Z,27.66
2023-05-02T12:01:17.487Z,27.71
2023-05-02T12:03:48.399Z,27.61
2023-05-02T12:06:18.980Z,26.94
2023-05-02T12:08:49.098Z,26.92
2023-05-02T12:11:17.813Z,26.84
2023-05-02T12:13:47.915Z,26.66
2023-05-02T12:16:18.330Z,27.62
2023-05-02T12:18:48.660Z,27.51
2023-05-02T12:21:17.869Z,27.81
2023-05-02T12:23:46.710Z,27.88
2023-05-02T12:26:18.715Z,27.45
2023-05-02T12:28:51.033Z,27.63
2023-05-02T12:31:20.885Z,27.71
2023-05-02T12:33:50.756Z,27.99
2023-05-02T12:36:19.948Z,27.70
2023-05-02T12:38:53.258Z,27.83
2023-05-02T12:41:32.874Z,26.64
2023-05-02T12:44:01.976Z,26.60
2023-05-02T12:46:32.672Z,26.94
2023-05-02T12:49:06.630Z,26.96
2023-05-02T12:51:35.080Z,26.53
2023-05-02T12:54:03.932Z,26.71
2023-05-02T12:56:39.645Z,27.07
2023-05-02T12:59:08.434Z,26.39
2023-05-02T13:01:38.372Z,27.24
2023-05-02T13:04:06.832Z,27.08
2023-05-02T13:06:37.801Z,27.54
2023-05-02T13:09:06.402Z,26.65
2023-05-02T13:11:34.817Z,25.46
2023-05-02T13:14:05.217Z,26.28
2023-05-02T13:16:36.764Z,25.44
2023-05-02T13:19:06.802Z,25.28
2023-05-02T13:21:35.084Z,25.17
2023-05-02T13:24:04.236Z,25.00
2023-05-02T13:26:32.829Z,25.21
2023-05-02T13:29:01.146Z,25.35
2023-05-02T13:31:29.620Z,25.82
2023-05-02T13:33:58.017Z,26.47
2023-05-02T13:36:27.719Z,26.76
2023-05-02T13:38:56.109Z,26.39
2023-05-02T13:41:25.204Z,26.14
2023-05-02T13:43:53.955Z,26.33
2023-05-02T13:46:22.268Z,26.74
2023-05-02T13:48:50.585Z,26.77
2023-05-02T13:51:18.789Z,26.30
2023-05-02T13:53:48.531Z,26.82
2023-05-02T13:56:16.750Z,26.98
2023-05-02T13:58:44.995Z,26.88
2023-05-02T14:01:13.321Z,26.76
2023-05-02T14:03:41.679Z,27.02
2023-05-02T14:06:09.999Z,27.35
2023-05-02T14:08:38.449Z,27.04
2023-05-02T14:11:08.178Z,27.28
2023-05-02T14:13:36.563Z,27.24
2023-05-02T14:16:05.230Z,26.68
2023-05-02T14:18:33.626Z,26.91
2023-05-02T14:21:03.138Z,26.80
2023-05-02T14:23:31.615Z,27.07
2023-05-02T14:25:59.873Z,27.27
2023-05-02T14:28:29.560Z,27.68
2023-05-02T14:30:57.863Z,27.02
2023-05-02T14:33:26.830Z,26.81
2023-05-02T14:35:55.021Z,27.46
2023-05-02T14:38:23.360Z,27.42
2023-05-02T14:40:51.757Z,27.19
2023-05-02T14:43:20.070Z,26.80
2023-05-02T14:45:49.791Z,27.57
2023-05-02T14:48:18.135Z,27.88
2023-05-02T14:50:46.385Z,27.75
2023-05-02T14:53:14.726Z,28.32
2023-05-02T14:55:43.358Z,28.19
2023-05-02T14:58:11.936Z,28.44
2023-05-02T15:00:40.328Z,29.02
2023-05-02T15:03:10.909Z,28.76
2023-05-02T15:05:39.373Z,29.17
2023-05-02T15:08:07.896Z,29.73
2023-05-02T15:10:38.380Z,29.35
2023-05-02T15:13:07.721Z,29.48
2023-05-02T15:15:37.272Z,29.52
2023-05-02T15:18:05.943Z,29.80
2023-05-02T15:20:35.624Z,30.11
2023-05-02T15:23:04.722Z,30.62
2023-05-02T15:25:33.203Z,30.36
2023-05-02T15:28:02.638Z,30.49
2023-05-02T15:30:30.956Z,30.51
2023-05-02T15:32:59.285Z,30.84
2023-05-02T15:35:27.548Z,31.14
2023-05-02T15:37:57.290Z,31.56
2023-05-02T15:40:27.667Z,31.45
2023-05-02T15:42:58.510Z,31.50
2023-05-02T15:45:26.964Z,31.45
2023-05-02T15:47:55.248Z,31.52
2023-05-02T15:50:24.080Z,31.47
2023-05-02T15:52:52.442Z,31.84
2023-05-02T15:55:22.190Z,31.80
2023-05-02T15:57:52.040Z,32.24
2023-05-02T16:00:21.260Z,32.95
2023-05-02T16:02:49.530Z,34.36
2023-05-02T16:05:18.111Z,36.75
2023-05-02T16:07:46.273Z,36.43
2023-05-02T16:10:14.522Z,36.46
2023-05-02T16:12:46.370Z,37.87
2023-05-02T16:15:14.976Z,38.96
2023-05-02T16:17:43.800Z,44.33
2023-05-02T16:20:13.240Z,46.58
2023-05-02T16:22:44.314Z,47.89
2023-05-02T16:25:12.933Z,49.18
2023-05-02T16:27:41.332Z,49.16
2023-05-02T16:30:12.162Z,49.71
2023-05-02T16:32:40.927Z,51.86
2023-05-02T16:35:12.458Z,55.06
2023-05-02T16:37:41.984Z,62.24
2023-05-02T16:40:11.259Z,69.03
2023-05-02T16:42:40.414Z,71.94
2023-05-02T16:45:11.144Z,74.97
2023-05-02T16:47:39.688Z,77.81
2023-05-02T16:50:09.379Z,78.89
2023-05-02T16:52:38.405Z,81.96
2023-05-02T16:55:07.250Z,86.06
2023-05-02T16:57:35.796Z,88.77
2023-05-02T17:00:04.662Z,92.03
2023-05-02T17:02:37.759Z,94.25
2023-05-02T17:05:06.764Z,97.85
2023-05-02T17:07:34.945Z,98.79
2023-05-02T17:10:04.527Z,97.89
2023-05-02T17:12:33.537Z,97.87
2023-05-02T17:15:04.045Z,96.87
2023-05-02T17:17:33.342Z,97.11
2023-05-02T17:20:03.747Z,96.85
2023-05-02T17:22:32.528Z,97.10
2023-05-02T17:25:00.823Z,97.57
2023-05-02T17:27:29.175Z,99.21
2023-05-02T17:29:57.437Z,99.47
2023-05-02T17:32:25.790Z,100.00
2023-05-02T17:34:54.275Z,99.94
2023-05-02T17:37:26.220Z,100.00
2023-05-02T17:39:54.535Z,100.00
2023-05-02T17:42:22.779Z,100.00
2023-05-02T17:44:51.127Z,100.00
2023-05-02T17:47:20.122Z,100.00
2023-05-02T17:49:49.814Z,100.00
2023-05-02T17:52:18.294Z,100.00
2023-05-02T17:54:47.971Z,100.00
2023-05-02T17:57:16.223Z,100.00
2023-05-02T17:59:44.557Z,100.00
2023-05-02T18:02:12.818Z,100.00
2023-05-02T18:04:43.305Z,100.00
2023-05-02T18:07:12.439Z,100.00
2023-05-02T18:09:40.636Z,100.00
2023-05-02T18:12:10.654Z,100.00
2023-05-02T18:14:39.173Z,100.00
2023-05-02T18:17:36.707Z,100.00
2023-05-02T18:20:10.162Z,100.00
2023-05-02T18:22:43.009Z,100.00
2023-05-02T18:25:11.857Z,100.00
2023-05-02T18:27:42.480Z,100.00
2023-05-02T18:30:11.977Z,100.00
2023-05-02T18:32:40.269Z,100.00
2023-05-02T18:35:11.192Z,100.00
2023-05-02T18:37:39.525Z,100.00
2023-05-02T18:40:09.180Z,100.00
2023-05-02T18:42:37.469Z,100.00
2023-05-02T18:45:08.298Z,100.00
2023-05-02T18:47:36.885Z,100.00
2023-05-02T18:50:06.015Z,100.00
2023-05-02T18:52:34.552Z,100.00
2023-05-02T18:55:04.996Z,100.00
2023-05-02T18:57:34.566Z,100.00
2023-05-02T19:00:06.392Z,100.00
2023-05-02T19:02:36.936Z,100.00
2023-05-02T19:05:07.309Z,100.00
2023-05-02T19:07:36.936Z,100.00
2023-05-02T19:10:07.367Z,100.00
2023-05-02T19:12:35.563Z,100.00
2023-05-02T19:15:05.012Z,100.00
2023-05-02T19:17:33.508Z,100.00
2023-05-02T19:20:03.233Z,100.00
2023-05-02T19:22:34.669Z,100.00
2023-05-02T19:25:03.462Z,100.00
2023-05-02T19:27:32.414Z,100.00
2023-05-02T19:30:00.843Z,100.00
2023-05-02T19:32:29.239Z,100.00
2023-05-02T19:34:58.043Z,100.00
2023-05-02T19:37:27.726Z,100.00
2023-05-02T19:39:56.043Z,100.00
2023-05-02T19:42:24.762Z,100.00
2023-05-02T19:44:53.299Z,100.00
2023-05-02T19:47:22.494Z,100.00
2023-05-02T19:49:52.122Z,100.00
2023-05-02T19:52:20.425Z,100.00
2023-05-02T19:54:52.058Z,100.00
2023-05-02T19:57:20.380Z,100.00
2023-05-02T19:59:48.575Z,100.00
2023-05-02T20:02:16.877Z,100.00
2023-05-02T20:04:45.202Z,100.00
2023-05-02T20:07:13.536Z,100.00
2023-05-02T20:09:41.781Z,100.00
2023-05-02T20:12:11.559Z,100.00
2023-05-02T20:14:40.884Z,100.00
2023-05-02T20:17:09.448Z,100.00
2023-05-02T20:19:37.699Z,96.84
2023-05-02T20:22:05.981Z,96.63
2023-05-02T20:24:34.239Z,95.75
2023-05-02T20:27:02.862Z,92.00
2023-05-02T20:29:32.628Z,92.34
2023-05-02T20:32:00.953Z,92.40
2023-05-02T20:34:29.562Z,91.33
2023-05-02T20:36:58.580Z,92.90
2023-05-02T20:39:26.781Z,94.06
2023-05-02T20:41:58.279Z,93.35
2023-05-02T20:44:27.042Z,93.46
2023-05-02T20:46:56.687Z,93.33
2023-05-02T20:49:25.102Z,91.73
2023-05-02T20:51:53.741Z,92.68
2023-05-02T20:54:22.005Z,92.98
2023-05-02T20:56:50.335Z,92.48
2023-05-02T20:59:18.635Z,92.46
2023-05-02T21:01:47.179Z,92.52
2023-05-02T21:04:17.000Z,94.42
2023-05-02T21:06:45.456Z,94.75
2023-05-02T21:09:13.798Z,94.89
2023-05-02T21:11:42.003Z,94.22
2023-05-02T21:14:10.175Z,94.77
2023-05-02T21:16:38.385Z,94.76
2023-05-02T21:19:06.792Z,95.29
2023-05-02T21:21:36.625Z,95.49
2023-05-02T21:24:05.339Z,95.66
2023-05-02T21:26:33.769Z,95.38
2023-05-02T21:29:02.650Z,96.02
2023-05-02T21:31:32.900Z,95.55
2023-05-02T21:34:01.722Z,95.36
2023-05-02T21:36:30.200Z,95.34
2023-05-02T21:38:59.883Z,97.29
2023-05-02T21:41:28.224Z,98.90
2023-05-02T21:43:56.586Z,100.00
2023-05-02T21:46:24.851Z,100.00
2023-05-02T21:48:53.159Z,100.00
2023-05-02T21:51:21.516Z,100.00
2023-05-02T21:53:49.734Z,100.00
2023-05-02T21:56:19.354Z,100.00
2023-05-02T21:58:49.653Z,100.00
2023-05-02T22:01:18.068Z,100.00
2023-05-02T22:03:46.446Z,100.00
2023-05-02T22:06:15.201Z,100.00
2023-05-02T22:08:44.025Z,100.00
2023-05-02T22:11:12.298Z,100.00
2023-05-02T22:13:41.967Z,100.00
2023-05-02T22:16:10.501Z,100.00
2023-05-02T22:18:38.887Z,100.00
2023-05-02T22:21:08.214Z,100.00
2023-05-02T22:23:36.539Z,100.00
2023-05-02T22:26:04.953Z,100.00
2023-05-02T22:28:33.221Z,100.00
2023-05-02T22:31:03.313Z,100.00
2023-05-02T22:33:31.541Z,100.00
2023-05-02T22:35:59.794Z,100.00
2023-05-02T22:38:28.017Z,100.00
2023-05-02T22:40:56.288Z,100.00
2023-05-02T22:43:24.800Z,100.00
2023-05-02T22:45:53.092Z,100.00
2023-05-02T22:48:22.777Z,100.00
2023-05-02T22:50:51.362Z,100.00
2023-05-02T22:53:21.649Z,100.00
2023-05-02T22:55:50.006Z,100.00
2023-05-02T22:58:18.182Z,100.00
2023-05-02T23:00:46.432Z,100.00
2023-05-02T23:03:14.767Z,100.00
2023-05-02T23:05:44.551Z,100.00
2023-05-02T23:08:12.767Z,100.00
2023-05-02T23:10:41.202Z,100.00
2023-05-02T23:13:09.395Z,100.00
2023-05-02T23:15:38.153Z,100.00
2023-05-02T23:18:07.040Z,100.00
2023-05-02T23:20:35.349Z,100.00
2023-05-02T23:23:05.808Z,100.00
2023-05-02T23:25:36.118Z,100.00
2023-05-02T23:28:04.374Z,100.00
2023-05-02T23:30:33.249Z,98.77
2023-05-02T23:33:01.962Z,98.55
2023-05-02T23:35:30.664Z,98.63
2023-05-02T23:38:00.877Z,98.38
2023-05-02T23:40:31.457Z,98.30
2023-05-02T23:42:59.905Z,97.17
2023-05-02T23:45:28.146Z,97.00
2023-05-02T23:47:56.543Z,96.58
2023-05-02T23:50:24.812Z,96.94
2023-05-02T23:52:53.018Z,95.92
2023-05-02T23:55:21.321Z,96.04
2023-05-02T23:57:50.916Z,95.15
